Time;durP1;ratioP1;P1;durP2;ratioP2;P2;SDS_P1;SDS_P2;PMS_P1;PMS_P2;Temp;Humidity;BMP_temperature;BMP_pressure;BME280_temperature;BME280_humidity;BME280_pressure;Samples;Min_cycle;Max_cycle;Signal;HPM_P1;HPM_P2
2024/03/05 00:01:23;;;;;;;42.33;12.70;;;8.70;99.90;;;;;;4996249;28;20480;-72
2024/03/05 00:03:50;;;;;;;24.43;12.70;;;8.70;99.90;;;;;;4996322;28;20474;-71
2024/03/05 00:06:17;;;;;;;29.90;11.10;;;8.70;99.90;;;;;;4994392;28;20476;-71
2024/03/05 00:08:43;;;;;;;37.83;12.77;;;8.70;99.90;;;;;;4996429;28;20816;-71
2024/03/05 00:11:10;;;;;;;32.30;12.33;;;8.70;99.90;;;;;;4997152;28;20472;-72
2024/03/05 00:13:37;;;;;;;33.77;12.60;;;8.60;99.90;;;;;;4991442;28;20464;-72
2024/03/05 00:16:05;;;;;;;46.37;13.47;;;8.60;99.90;;;;;;4994906;28;21631;-71
2024/03/05 00:18:32;;;;;;;24.30;11.60;;;8.50;99.90;;;;;;4995642;28;20462;-71
2024/03/05 00:20:59;;;;;;;31.87;12.90;;;8.40;99.90;;;;;;4996863;28;20465;-71
2024/03/05 00:23:26;;;;;;;27.77;11.07;;;8.30;99.90;;;;;;4991960;28;20461;-71
2024/03/05 00:25:52;;;;;;;26.93;9.93;;;8.30;99.90;;;;;;4991870;28;20461;-71
2024/03/05 00:28:19;;;;;;;31.60;11.60;;;8.20;99.90;;;;;;4990008;28;20497;-71
2024/03/05 00:30:46;;;;;;;40.47;13.07;;;8.20;99.90;;;;;;4990408;28;20441;-71
2024/03/05 00:33:14;;;;;;;28.47;10.93;;;8.10;99.90;;;;;;4989984;28;20533;-71
2024/03/05 00:35:41;;;;;;;33.20;10.30;;;8.10;99.90;;;;;;4993560;28;21005;-71
2024/03/05 00:38:08;;;;;;;37.57;12.93;;;8.10;99.90;;;;;;4992499;28;20503;-71
2024/03/05 00:40:35;;;;;;;39.37;11.60;;;8.10;99.90;;;;;;4992776;28;20505;-71
2024/03/05 00:43:02;;;;;;;29.53;11.70;;;7.90;99.90;;;;;;4997128;28;20834;-71
2024/03/05 00:45:30;;;;;;;31.97;10.73;;;7.80;99.90;;;;;;4987660;28;21075;-72
2024/03/05 00:47:57;;;;;;;39.03;13.70;;;7.80;99.90;;;;;;4992521;28;20470;-72
2024/03/05 00:50:25;;;;;;;33.50;13.37;;;7.80;99.90;;;;;;4989300;28;20975;-71
2024/03/05 00:52:51;;;;;;;27.63;13.90;;;7.70;99.90;;;;;;5001464;28;20428;-71
2024/03/05 00:55:19;;;;;;;54.23;16.47;;;7.70;99.90;;;;;;4995711;28;20456;-70
2024/03/05 00:57:46;;;;;;;33.57;12.50;;;7.70;99.90;;;;;;4995418;28;20463;-71
2024/03/05 01:00:14;;;;;;;29.10;12.27;;;7.60;99.90;;;;;;4999320;28;20481;-72
2024/03/05 01:02:41;;;;;;;27.83;11.50;;;7.50;99.90;;;;;;4993184;28;20516;-70
2024/03/05 01:05:09;;;;;;;44.60;12.83;;;7.50;99.90;;;;;;4992914;28;20518;-71
2024/03/05 01:07:37;;;;;;;27.33;10.90;;;7.40;99.90;;;;;;4994896;28;20445;-71
2024/03/05 01:10:06;;;;;;;26.70;10.83;;;7.50;99.90;;;;;;4990028;28;20458;-71
2024/03/05 01:12:33;;;;;;;38.80;12.60;;;7.50;99.90;;;;;;4992792;28;20437;-71
2024/03/05 01:15:00;;;;;;;27.87;11.50;;;7.50;99.90;;;;;;4988994;28;20559;-71
2024/03/05 01:17:27;;;;;;;42.33;13.37;;;7.50;99.90;;;;;;4987530;28;20487;-71
2024/03/05 01:19:54;;;;;;;35.40;13.10;;;7.60;99.90;;;;;;4996119;28;20505;-71
2024/03/05 01:22:21;;;;;;;43.87;13.50;;;7.50;99.90;;;;;;4987816;28;20804;-71
2024/03/05 01:24:50;;;;;;;52.80;14.37;;;7.50;99.90;;;;;;4993263;28;20543;-71
2024/03/05 01:27:18;;;;;;;35.83;15.80;;;7.50;99.90;;;;;;4991033;28;20581;-72
2024/03/05 01:29:47;;;;;;;45.47;14.87;;;7.50;99.90;;;;;;4990939;28;21301;-72
2024/03/05 01:32:14;;;;;;;68.60;17.80;;;7.50;99.90;;;;;;4988153;28;20469;-72
2024/03/05 01:34:46;;;;;;;35.67;15.60;;;7.60;99.90;;;;;;4994190;28;20768;-72
2024/03/05 01:37:16;;;;;;;40.10;15.13;;;7.70;99.90;;;;;;4991074;28;20578;-71
2024/03/05 01:39:43;;;;;;;37.67;12.73;;;7.70;99.90;;;;;;4996635;28;20488;-72
2024/03/05 01:42:11;;;;;;;40.33;12.57;;;7.70;99.90;;;;;;4995454;28;20486;-71
2024/03/05 01:44:38;;;;;;;55.30;17.87;;;7.80;99.90;;;;;;4993679;28;20482;-71
2024/03/05 01:47:05;;;;;;;42.87;15.37;;;7.80;99.90;;;;;;4994253;28;20471;-71
2024/03/05 01:49:33;;;;;;;34.27;13.67;;;7.80;99.90;;;;;;4986276;28;20497;-71
2024/03/05 01:52:00;;;;;;;53.43;14.57;;;7.80;99.90;;;;;;4981196;28;20897;-72
2024/03/05 01:54:29;;;;;;;50.93;16.53;;;7.70;99.90;;;;;;4987282;28;21096;-72
2024/03/05 01:56:59;;;;;;;78.00;18.63;;;7.80;99.90;;;;;;4995290;28;20816;-72
2024/03/05 01:59:27;;;;;;;53.33;17.60;;;7.80;99.90;;;;;;4990996;28;20547;-72
2024/03/05 02:01:56;;;;;;;23.93;10.97;;;7.90;99.90;;;;;;4988007;28;20466;-72
2024/03/05 02:04:24;;;;;;;43.70;13.17;;;8.00;99.90;;;;;;4991034;28;20503;-72
2024/03/05 02:06:52;;;;;;;37.50;15.20;;;8.00;99.90;;;;;;4986945;28;20462;-72
2024/03/05 02:09:21;;;;;;;31.87;12.93;;;8.00;99.90;;;;;;4995544;28;20513;-72
2024/03/05 02:11:48;;;;;;;39.73;10.97;;;8.10;99.90;;;;;;4987985;28;20456;-72
2024/03/05 02:14:16;;;;;;;37.77;14.40;;;8.10;99.90;;;;;;4992918;28;20466;-72
2024/03/05 02:16:45;;;;;;;33.53;13.17;;;8.00;99.90;;;;;;4985394;28;20509;-72
2024/03/05 02:19:12;;;;;;;41.53;14.13;;;8.00;99.90;;;;;;4986377;28;20554;-72
2024/03/05 02:21:40;;;;;;;44.30;16.97;;;8.00;99.90;;;;;;4990842;28;20475;-72
2024/03/05 02:24:07;;;;;;;34.70;13.07;;;8.10;99.90;;;;;;4993547;28;20473;-72
2024/03/05 02:26:35;;;;;;;36.87;12.40;;;8.20;99.90;;;;;;4987111;28;20863;-72
2024/03/05 02:29:02;;;;;;;30.47;13.87;;;8.20;99.90;;;;;;4991521;28;20474;-72
2024/03/05 02:31:29;;;;;;;38.03;11.87;;;8.20;99.90;;;;;;4987684;28;20940;-72
2024/03/05 02:33:56;;;;;;;31.97;15.17;;;8.20;99.90;;;;;;4992991;28;20476;-72
2024/03/05 02:36:23;;;;;;;35.47;13.57;;;8.20;99.90;;;;;;4989587;28;20443;-72
2024/03/05 02:38:52;;;;;;;31.60;14.43;;;8.30;99.90;;;;;;4983542;28;21261;-72
2024/03/05 02:41:20;;;;;;;28.70;12.83;;;8.30;99.90;;;;;;4985308;28;20489;-72
2024/03/05 02:43:47;;;;;;;31.50;12.33;;;8.40;99.90;;;;;;4979228;28;20978;-72
2024/03/05 02:46:15;;;;;;;25.70;12.83;;;8.40;99.90;;;;;;4989849;28;22732;-72
2024/03/05 02:48:42;;;;;;;31.43;11.10;;;8.40;99.90;;;;;;4988598;28;20489;-72
2024/03/05 02:51:09;;;;;;;42.47;13.47;;;8.40;99.90;;;;;;4989148;28;20444;-72
2024/03/05 02:53:36;;;;;;;32.60;11.33;;;8.40;99.90;;;;;;4988491;28;20457;-72
2024/03/05 02:56:05;;;;;;;35.80;14.83;;;8.40;99.90;;;;;;4992666;28;20453;-72
2024/03/05 02:58:32;;;;;;;42.07;13.30;;;8.30;99.90;;;;;;4993121;28;21175;-72
2024/03/05 03:00:59;;;;;;;30.10;14.23;;;8.40;99.90;;;;;;4993226;28;20469;-72
2024/03/05 03:03:26;;;;;;;33.40;15.97;;;8.40;99.90;;;;;;4993496;28;20440;-72
2024/03/05 03:05:53;;;;;;;29.00;13.50;;;8.50;99.90;;;;;;4995033;28;20499;-72
2024/03/05 03:08:20;;;;;;;41.03;10.83;;;8.50;99.90;;;;;;4989262;28;20524;-72
2024/03/05 03:10:47;;;;;;;35.83;14.90;;;8.30;99.90;;;;;;4984076;28;20553;-72
2024/03/05 03:13:15;;;;;;;37.70;13.77;;;8.40;99.90;;;;;;4983722;28;20679;-72
2024/03/05 03:15:42;;;;;;;31.53;12.17;;;8.40;99.90;;;;;;4981031;28;21115;-72
2024/03/05 03:18:10;;;;;;;32.30;13.70;;;8.50;99.90;;;;;;4982044;28;20486;-72
2024/03/05 03:20:37;;;;;;;37.17;13.97;;;8.50;99.90;;;;;;4991163;28;20513;-71
2024/03/05 03:23:04;;;;;;;47.57;13.97;;;8.60;99.90;;;;;;4985075;28;20453;-70
2024/03/05 03:25:31;;;;;;;41.53;13.60;;;8.50;99.90;;;;;;4986255;28;20508;-70
2024/03/05 03:27:59;;;;;;;44.73;17.13;;;8.50;99.90;;;;;;4987783;28;20440;-72
2024/03/05 03:30:29;;;;;;;31.70;13.10;;;8.60;99.90;;;;;;4986654;28;20511;-71
2024/03/05 03:32:56;;;;;;;32.20;12.00;;;8.70;99.90;;;;;;4988472;28;20483;-71
2024/03/05 03:35:23;;;;;;;58.57;16.17;;;8.70;99.90;;;;;;4989835;28;20477;-71
2024/03/05 03:37:51;;;;;;;38.50;13.40;;;8.60;99.90;;;;;;4984003;28;20862;-72
2024/03/05 03:40:21;;;;;;;33.77;12.47;;;8.60;99.90;;;;;;4988056;28;20596;-71
2024/03/05 03:42:48;;;;;;;36.33;13.27;;;8.60;99.90;;;;;;4981367;28;20461;-71
2024/03/05 03:45:16;;;;;;;41.73;15.10;;;8.70;99.90;;;;;;4992080;28;21027;-71
2024/03/05 03:47:45;;;;;;;29.73;13.70;;;8.60;99.90;;;;;;4987963;28;20543;-72
2024/03/05 03:50:12;;;;;;;49.10;14.80;;;8.60;99.90;;;;;;4989121;28;20485;-72
2024/03/05 03:52:41;;;;;;;35.53;12.00;;;8.50;99.90;;;;;;4990812;28;20576;-72
2024/03/05 03:55:08;;;;;;;36.90;12.33;;;8.40;99.90;;;;;;4989157;28;20423;-72
2024/03/05 03:57:35;;;;;;;34.67;12.23;;;8.40;99.90;;;;;;4990910;28;20511;-72
2024/03/05 04:00:07;;;;;;;33.63;15.03;;;8.30;99.90;;;;;;4995434;28;20820;-72
2024/03/05 04:02:34;;;;;;;39.87;13.27;;;8.10;99.90;;;;;;4999739;28;20764;-71
2024/03/05 04:05:04;;;;;;;32.13;11.80;;;8.10;99.90;;;;;;4991941;28;20633;-71
2024/03/05 04:07:31;;;;;;;44.43;15.73;;;8.20;99.90;;;;;;4990399;28;21918;-72
2024/03/05 04:09:57;;;;;;;37.97;13.17;;;8.10;99.90;;;;;;4991013;28;20481;-72
2024/03/05 04:12:24;;;;;;;28.13;10.90;;;8.20;99.90;;;;;;4991461;28;20453;-72
2024/03/05 04:14:51;;;;;;;34.00;14.10;;;8.30;99.90;;;;;;4998793;28;20624;-71
2024/03/05 04:17:19;;;;;;;42.57;14.40;;;8.30;99.90;;;;;;4993299;28;20518;-71
2024/03/05 04:19:46;;;;;;;28.43;12.60;;;8.20;99.90;;;;;;4992874;28;22194;-71
2024/03/05 04:22:14;;;;;;;28.43;13.80;;;8.20;99.90;;;;;;4992110;28;20448;-71
2024/03/05 04:24:49;;;;;;;28.03;12.13;;;8.10;99.90;;;;;;4991832;28;21225;-71
2024/03/05 04:27:18;;;;;;;42.00;13.60;;;8.10;99.90;;;;;;4992379;28;20998;-71
2024/03/05 04:29:47;;;;;;;35.03;14.10;;;8.10;99.90;;;;;;4997976;28;20483;-71
2024/03/05 04:32:14;;;;;;;30.03;13.10;;;8.10;99.90;;;;;;4996706;28;20819;-71
2024/03/05 04:34:43;;;;;;;27.80;12.07;;;8.10;99.90;;;;;;4995753;28;20468;-72
2024/03/05 04:37:10;;;;;;;37.63;11.40;;;8.10;99.90;;;;;;4993200;28;20462;-73
2024/03/05 04:39:38;;;;;;;35.37;13.23;;;8.10;99.90;;;;;;4993770;28;20668;-72
2024/03/05 04:42:06;;;;;;;27.23;13.87;;;8.10;99.90;;;;;;5000171;28;21065;-72
2024/03/05 04:44:34;;;;;;;29.83;13.43;;;8.10;99.90;;;;;;4987954;28;20465;-72
2024/03/05 04:47:00;;;;;;;35.67;14.37;;;8.10;99.90;;;;;;4988220;28;20492;-72
2024/03/05 04:49:27;;;;;;;44.37;17.17;;;8.10;99.90;;;;;;4995404;28;20471;-72
2024/03/05 04:51:54;;;;;;;29.17;14.17;;;8.10;99.90;;;;;;4993896;28;20534;-72
2024/03/05 04:54:21;;;;;;;34.30;13.90;;;8.10;99.90;;;;;;4996361;28;20477;-72
2024/03/05 04:56:49;;;;;;;36.63;14.43;;;8.20;99.90;;;;;;5001168;28;20457;-72
2024/03/05 04:59:15;;;;;;;32.17;12.47;;;8.20;99.90;;;;;;5000592;28;20495;-72
2024/03/05 05:01:44;;;;;;;45.43;14.67;;;8.20;99.90;;;;;;5006327;28;20464;-72
2024/03/05 05:04:10;;;;;;;38.23;15.07;;;8.20;99.90;;;;;;5005782;28;20443;-72
2024/03/05 05:06:37;;;;;;;33.60;12.23;;;8.20;99.90;;;;;;5002806;28;20456;-72
2024/03/05 05:09:07;;;;;;;31.90;12.47;;;8.30;99.90;;;;;;5002239;28;22330;-71
2024/03/05 05:11:34;;;;;;;29.47;11.07;;;8.30;99.90;;;;;;5007359;28;20465;-71
2024/03/05 05:14:02;;;;;;;35.37;14.07;;;8.40;99.90;;;;;;5000576;28;20469;-70
2024/03/05 05:16:29;;;;;;;38.53;12.63;;;8.30;99.90;;;;;;4999503;28;20485;-70
2024/03/05 05:18:56;;;;;;;38.43;14.10;;;8.30;99.90;;;;;;4992287;28;20459;-69
2024/03/05 05:21:23;;;;;;;30.27;12.07;;;8.20;99.90;;;;;;4995579;28;20560;-70
2024/03/05 05:23:50;;;;;;;40.60;15.07;;;8.20;99.90;;;;;;4994833;28;20461;-70
2024/03/05 05:26:17;;;;;;;31.70;14.40;;;8.20;99.90;;;;;;5002989;28;20988;-70
2024/03/05 05:28:45;;;;;;;31.93;11.70;;;8.20;99.90;;;;;;5004889;28;20467;-70
2024/03/05 05:31:24;;;;;;;33.43;11.73;;;8.30;99.90;;;;;;5003813;28;20630;-71
2024/03/05 05:33:50;;;;;;;33.47;12.57;;;8.30;99.90;;;;;;5004157;28;20540;-71
2024/03/05 05:36:17;;;;;;;36.00;13.80;;;8.40;99.90;;;;;;4999293;28;20465;-70
2024/03/05 05:38:45;;;;;;;19.27;11.57;;;8.40;99.90;;;;;;4998768;28;20477;-71
2024/03/05 05:41:11;;;;;;;27.47;12.70;;;8.40;99.90;;;;;;4999132;28;20465;-71
2024/03/05 05:43:38;;;;;;;37.70;13.63;;;8.30;99.90;;;;;;5002498;28;20464;-71
2024/03/05 05:46:05;;;;;;;28.73;13.17;;;8.40;99.90;;;;;;4998726;28;20507;-71
2024/03/05 05:48:33;;;;;;;30.23;11.87;;;8.50;99.90;;;;;;4993721;28;20447;-70
2024/03/05 05:51:00;;;;;;;40.33;14.73;;;8.50;99.90;;;;;;5001049;28;20455;-70
2024/03/05 05:53:27;;;;;;;26.43;9.73;;;8.40;99.90;;;;;;4993359;28;20576;-71
2024/03/05 05:55:54;;;;;;;53.90;16.20;;;8.40;99.90;;;;;;4995518;28;20481;-70
2024/03/05 05:58:21;;;;;;;36.17;15.30;;;8.50;99.90;;;;;;5001701;28;20461;-71
2024/03/05 06:00:48;;;;;;;39.90;13.20;;;8.50;99.90;;;;;;5004096;28;20457;-71
2024/03/05 06:03:14;;;;;;;42.03;14.53;;;8.60;99.90;;;;;;5001096;28;20935;-71
2024/03/05 06:05:43;;;;;;;27.60;14.50;;;8.60;99.90;;;;;;4999842;28;20564;-71
2024/03/05 06:08:11;;;;;;;35.57;12.83;;;8.60;99.90;;;;;;5001164;28;20462;-71
2024/03/05 06:10:38;;;;;;;41.03;15.60;;;8.60;99.90;;;;;;4999714;28;20504;-71
2024/03/05 06:13:06;;;;;;;38.97;12.90;;;8.60;99.90;;;;;;5000807;28;20948;-72
2024/03/05 06:15:33;;;;;;;36.53;15.07;;;8.60;99.90;;;;;;5002756;28;20551;-72
2024/03/05 06:18:00;;;;;;;34.70;17.00;;;8.60;99.90;;;;;;5000046;28;20660;-71
2024/03/05 06:20:28;;;;;;;31.13;12.17;;;8.60;99.90;;;;;;5005185;28;20840;-71
2024/03/05 06:22:58;;;;;;;34.00;16.80;;;8.60;99.90;;;;;;5002315;28;20465;-71
2024/03/05 06:25:26;;;;;;;49.43;17.10;;;8.60;99.90;;;;;;4998447;28;20565;-70
2024/03/05 06:27:53;;;;;;;46.03;16.50;;;8.60;99.90;;;;;;4998696;28;20949;-70
2024/03/05 06:30:21;;;;;;;39.63;13.63;;;8.60;99.90;;;;;;5000830;28;21583;-70
2024/03/05 06:32:48;;;;;;;40.60;12.00;;;8.60;99.90;;;;;;4997403;28;20545;-71
2024/03/05 06:35:16;;;;;;;46.03;15.20;;;8.70;99.90;;;;;;5005078;28;20465;-70
2024/03/05 06:37:44;;;;;;;36.40;12.80;;;8.60;99.90;;;;;;4998595;28;20453;-70
2024/03/05 06:40:13;;;;;;;36.47;15.87;;;8.60;99.90;;;;;;5004614;28;20490;-71
2024/03/05 06:42:43;;;;;;;49.40;15.27;;;8.60;99.90;;;;;;5001584;28;20534;-71
2024/03/05 06:45:14;;;;;;;34.70;11.67;;;8.60;99.90;;;;;;5002193;28;20950;-71
2024/03/05 06:47:44;;;;;;;33.50;12.87;;;8.70;99.90;;;;;;5000639;28;20446;-70
2024/03/05 06:50:19;;;;;;;31.90;14.90;;;8.70;99.90;;;;;;4998267;28;20489;-71
2024/03/05 06:58:16;;;;;;;40.77;12.53;;;8.70;99.90;;;;;;4999336;28;20946;-70
2024/03/05 07:00:44;;;;;;;31.47;13.63;;;8.70;99.90;;;;;;5000536;28;20522;-71
2024/03/05 07:03:12;;;;;;;27.47;13.70;;;8.60;99.90;;;;;;5004473;28;20841;-71
2024/03/05 07:05:38;;;;;;;35.67;17.03;;;8.70;99.90;;;;;;5003223;28;20499;-71
2024/03/05 07:08:08;;;;;;;36.40;14.07;;;8.60;99.90;;;;;;5004444;28;20478;-71
2024/03/05 07:10:37;;;;;;;38.80;14.93;;;8.60;99.90;;;;;;5001871;28;20485;-71
2024/03/05 07:13:04;;;;;;;40.40;14.50;;;8.70;99.90;;;;;;4998520;28;20461;-71
2024/03/05 07:15:31;;;;;;;34.37;12.77;;;8.70;99.90;;;;;;5001389;28;20472;-71
2024/03/05 07:17:57;;;;;;;38.87;14.20;;;8.80;99.90;;;;;;5002490;28;20457;-71
2024/03/05 07:20:24;;;;;;;33.07;12.90;;;8.80;99.90;;;;;;5002703;28;20495;-71
2024/03/05 07:22:53;;;;;;;33.53;15.10;;;8.90;99.90;;;;;;4996558;28;20468;-70
2024/03/05 07:25:21;;;;;;;35.40;12.63;;;8.90;99.90;;;;;;5000282;28;20561;-71
2024/03/05 07:27:51;;;;;;;31.60;12.63;;;8.90;99.90;;;;;;5001361;28;20516;-70
2024/03/05 07:30:20;;;;;;;41.93;15.70;;;8.90;99.90;;;;;;4997731;28;20498;-71
2024/03/05 07:32:47;;;;;;;28.17;12.37;;;8.90;99.90;;;;;;4999476;28;21093;-71
2024/03/05 07:35:15;;;;;;;31.27;13.37;;;8.90;99.90;;;;;;5000345;28;20468;-70
2024/03/05 07:37:44;;;;;;;37.97;16.63;;;9.10;99.90;;;;;;5001257;28;20461;-71
2024/03/05 07:40:17;;;;;;;42.17;13.80;;;9.00;99.90;;;;;;5000640;28;20584;-71
2024/03/05 07:42:45;;;;;;;37.10;14.53;;;9.10;99.90;;;;;;5002678;28;20452;-71
2024/03/05 07:45:13;;;;;;;42.83;15.90;;;9.20;99.90;;;;;;5004209;28;20468;-72
2024/03/05 07:47:40;;;;;;;29.20;12.70;;;9.20;99.90;;;;;;5001610;28;20554;-71
2024/03/05 07:50:09;;;;;;;38.37;13.37;;;9.50;99.90;;;;;;5002882;28;20550;-71
2024/03/05 07:52:36;;;;;;;45.67;15.67;;;9.50;99.90;;;;;;5004003;28;20493;-71
2024/03/05 07:55:04;;;;;;;35.30;15.57;;;9.50;99.90;;;;;;5007429;28;20487;-71
2024/03/05 07:57:31;;;;;;;41.57;15.70;;;9.50;99.90;;;;;;5001843;28;20513;-71
2024/03/05 07:59:58;;;;;;;43.63;16.17;;;9.70;99.90;;;;;;5004851;28;20567;-71
2024/03/05 08:02:26;;;;;;;40.40;14.10;;;9.80;99.90;;;;;;5007244;28;20458;-71
2024/03/05 08:04:53;;;;;;;41.07;13.20;;;9.80;99.90;;;;;;4998284;28;20520;-70
2024/03/05 08:07:20;;;;;;;32.90;12.03;;;9.90;99.90;;;;;;4999919;28;20862;-71
2024/03/05 08:09:46;;;;;;;26.47;13.13;;;10.00;99.90;;;;;;4999228;28;20503;-71
2024/03/05 08:12:13;;;;;;;47.83;18.80;;;10.00;99.90;;;;;;4997012;28;20462;-71
2024/03/05 08:14:40;;;;;;;34.27;14.63;;;9.90;99.90;;;;;;5003955;28;20803;-70
2024/03/05 08:17:08;;;;;;;29.30;13.00;;;9.90;99.90;;;;;;5003259;28;20464;-71
2024/03/05 08:19:36;;;;;;;33.23;14.43;;;10.00;99.90;;;;;;5002555;28;20523;-70
2024/03/05 08:22:05;;;;;;;40.70;13.63;;;10.10;99.90;;;;;;5005131;28;20460;-71
2024/03/05 08:24:31;;;;;;;37.53;16.23;;;10.20;99.90;;;;;;4996317;28;20492;-71
2024/03/05 08:26:58;;;;;;;38.93;14.40;;;10.30;99.90;;;;;;5002544;28;20492;-71
2024/03/05 08:29:26;;;;;;;45.50;15.03;;;10.30;99.90;;;;;;5009401;28;20486;-71
2024/03/05 08:31:53;;;;;;;38.13;14.10;;;10.20;99.90;;;;;;5004579;28;20459;-71
2024/03/05 08:34:20;;;;;;;37.40;14.77;;;10.20;99.90;;;;;;5006269;28;20842;-71
2024/03/05 08:36:49;;;;;;;43.00;15.80;;;10.30;99.90;;;;;;5003991;28;20582;-71
2024/03/05 08:39:18;;;;;;;28.73;11.93;;;10.50;99.90;;;;;;4999570;28;20662;-71
2024/03/05 08:41:46;;;;;;;39.07;14.90;;;10.70;99.90;;;;;;4998516;28;20462;-71
2024/03/05 08:44:14;;;;;;;38.60;17.50;;;11.00;99.90;;;;;;5004714;28;20473;-71
2024/03/05 08:46:40;;;;;;;32.57;13.30;;;11.20;99.90;;;;;;4999550;28;20509;-71
2024/03/05 08:49:07;;;;;;;30.87;13.20;;;11.30;99.90;;;;;;5004867;28;20489;-71
2024/03/05 08:51:37;;;;;;;39.07;13.87;;;11.60;99.90;;;;;;5005650;28;20511;-70
2024/03/05 08:54:08;;;;;;;32.97;14.13;;;12.20;99.90;;;;;;5004730;28;20453;-70
2024/03/05 08:56:36;;;;;;;29.83;12.60;;;12.50;99.90;;;;;;5008619;28;20453;-70
2024/03/05 08:59:05;;;;;;;39.93;15.13;;;12.90;99.90;;;;;;5004389;28;20488;-71
2024/03/05 09:01:33;;;;;;;36.40;13.67;;;13.00;99.90;;;;;;5001549;28;20458;-71
2024/03/05 09:04:00;;;;;;;36.93;15.00;;;13.30;99.90;;;;;;5008319;28;20464;-71
2024/03/05 09:06:28;;;;;;;32.57;13.97;;;13.60;99.90;;;;;;5009182;28;20575;-72
2024/03/05 09:08:54;;;;;;;24.00;12.20;;;14.20;99.90;;;;;;5005825;28;20593;-72
2024/03/05 09:11:22;;;;;;;42.90;14.70;;;14.80;99.90;;;;;;5009133;28;20460;-71
2024/03/05 09:13:49;;;;;;;31.30;12.87;;;14.90;99.90;;;;;;5006892;28;20824;-71
2024/03/05 09:16:16;;;;;;;33.67;15.00;;;15.10;99.90;;;;;;4994396;28;20496;-71
2024/03/05 09:18:44;;;;;;;31.90;13.87;;;15.00;99.90;;;;;;5005013;28;20956;-71
2024/03/05 09:21:11;;;;;;;33.00;13.97;;;15.10;99.90;;;;;;5002560;28;20473;-71
2024/03/05 09:23:39;;;;;;;28.57;14.67;;;15.20;99.90;;;;;;4998193;28;20468;-71
2024/03/05 09:26:07;;;;;;;36.77;15.97;;;14.70;99.90;;;;;;5004799;28;20469;-70
2024/03/05 09:28:35;;;;;;;40.07;15.27;;;14.60;99.90;;;;;;4999243;28;20461;-70
2024/03/05 09:31:02;;;;;;;29.80;13.50;;;14.60;99.90;;;;;;5001114;28;20476;-71
2024/03/05 09:33:30;;;;;;;31.70;13.77;;;14.30;99.90;;;;;;5001947;28;20457;-71
2024/03/05 09:35:58;;;;;;;31.17;15.20;;;14.20;99.90;;;;;;4999988;28;20476;-71
2024/03/05 09:38:25;;;;;;;34.63;15.47;;;13.90;99.90;;;;;;4999347;28;20457;-71
2024/03/05 09:40:52;;;;;;;36.40;14.50;;;13.60;99.90;;;;;;5001044;28;20464;-72
2024/03/05 09:43:22;;;;;;;33.43;14.93;;;13.50;99.90;;;;;;4998844;28;20561;-71
2024/03/05 09:45:52;;;;;;;37.27;17.60;;;13.70;99.90;;;;;;5004587;28;20460;-71
2024/03/05 09:48:21;;;;;;;28.23;14.77;;;13.50;99.90;;;;;;5005744;28;20496;-70
2024/03/05 09:50:49;;;;;;;33.50;15.63;;;13.70;99.90;;;;;;5009502;28;20499;-72
2024/03/05 09:53:16;;;;;;;42.40;16.77;;;13.70;99.90;;;;;;5001472;28;20936;-71
2024/03/05 09:55:44;;;;;;;42.87;14.70;;;13.70;99.90;;;;;;4995363;28;20546;-72
2024/03/05 09:58:12;;;;;;;43.27;15.97;;;13.60;99.90;;;;;;5003422;28;20960;-70
2024/03/05 10:00:39;;;;;;;37.00;15.77;;;13.30;99.90;;;;;;4995295;28;20481;-71
2024/03/05 10:03:08;;;;;;;33.00;14.17;;;13.30;99.90;;;;;;5005399;28;20465;-70
2024/03/05 10:05:36;;;;;;;30.70;14.60;;;13.40;99.90;;;;;;4998940;28;21059;-71
2024/03/05 10:08:04;;;;;;;34.30;15.77;;;13.50;99.90;;;;;;5004886;28;20860;-71
2024/03/05 10:10:33;;;;;;;33.20;13.37;;;13.20;99.90;;;;;;4995117;28;20740;-70
2024/03/05 10:13:02;;;;;;;29.87;15.17;;;13.10;99.90;;;;;;4997659;28;20991;-71
2024/03/05 10:15:29;;;;;;;32.87;12.90;;;13.00;99.90;;;;;;4992887;28;20517;-71
2024/03/05 10:17:56;;;;;;;42.43;16.33;;;12.90;99.90;;;;;;5001973;28;20457;-71
2024/03/05 10:20:29;;;;;;;38.67;14.33;;;12.90;99.90;;;;;;5001963;28;20482;-71
2024/03/05 10:22:57;;;;;;;30.03;14.83;;;12.70;99.90;;;;;;4999520;28;21255;-71
2024/03/05 10:25:25;;;;;;;26.87;11.33;;;12.60;99.90;;;;;;5006925;28;20473;-72
2024/03/05 10:27:52;;;;;;;41.87;11.77;;;12.60;99.90;;;;;;5002049;28;20834;-71
2024/03/05 10:30:28;;;;;;;17.63;10.33;;;12.80;99.90;;;;;;5003693;28;20489;-71
2024/03/05 10:32:59;;;;;;;28.70;15.77;;;12.80;99.90;;;;;;4998135;28;20552;-71
2024/03/05 10:35:26;;;;;;;20.10;11.60;;;12.80;99.90;;;;;;5001392;28;20466;-71
2024/03/05 10:37:59;;;;;;;31.90;12.40;;;12.70;99.90;;;;;;4999257;28;20809;-72
2024/03/05 10:40:26;;;;;;;18.60;9.60;;;12.80;99.90;;;;;;4997604;28;20474;-71
2024/03/05 10:42:54;;;;;;;23.00;12.60;;;12.70;99.90;;;;;;4999008;28;20468;-71
2024/03/05 10:45:23;;;;;;;30.47;12.77;;;12.70;99.90;;;;;;4997824;28;20458;-71
2024/03/05 10:47:51;;;;;;;32.60;15.57;;;12.50;99.90;;;;;;5005840;28;20492;-71
2024/03/05 10:50:19;;;;;;;27.83;13.27;;;12.30;99.90;;;;;;5002840;28;20493;-71
2024/03/05 10:52:48;;;;;;;31.77;12.20;;;12.40;99.90;;;;;;5003481;28;20457;-71
2024/03/05 10:55:21;;;;;;;28.27;10.30;;;12.20;99.90;;;;;;5001931;28;20523;-71
2024/03/05 11:00:35;;;;;;;26.73;12.93;;;12.10;99.90;;;;;;5000921;28;20440;-72
2024/03/05 11:03:05;;;;;;;25.50;12.50;;;12.20;99.90;;;;;;5003248;28;20465;-72
2024/03/05 11:05:34;;;;;;;30.37;12.00;;;12.40;99.90;;;;;;5002407;28;20448;-71
2024/03/05 11:08:02;;;;;;;29.43;12.13;;;12.50;99.90;;;;;;5006386;28;20484;-71
2024/03/05 11:10:31;;;;;;;26.40;13.10;;;12.60;99.90;;;;;;5003129;28;20516;-70
2024/03/05 11:12:58;;;;;;;29.80;12.50;;;12.70;99.90;;;;;;4996254;28;20487;-70
2024/03/05 11:15:25;;;;;;;27.13;13.00;;;12.60;99.90;;;;;;4999873;28;20461;-71
2024/03/05 11:17:51;;;;;;;29.73;13.30;;;12.50;99.90;;;;;;5003570;28;21689;-71
2024/03/05 11:20:42;;;;;;;28.77;14.70;;;12.50;99.90;;;;;;5004216;28;20481;-71
2024/03/05 11:23:11;;;;;;;21.97;11.47;;;12.40;99.90;;;;;;4997436;28;20477;-71
2024/03/05 11:25:46;;;;;;;30.07;13.73;;;12.20;99.90;;;;;;5002401;28;20463;-72
2024/03/05 11:28:13;;;;;;;23.20;13.23;;;12.20;99.90;;;;;;5004302;28;21328;-71
2024/03/05 11:30:41;;;;;;;29.67;13.17;;;12.20;99.90;;;;;;5003051;28;21031;-71
2024/03/05 11:33:12;;;;;;;30.93;14.27;;;12.10;99.90;;;;;;5000208;28;20548;-71
2024/03/05 11:35:42;;;;;;;40.23;12.47;;;12.20;99.90;;;;;;5005515;28;20826;-71
2024/03/05 11:38:12;;;;;;;28.40;11.90;;;12.10;99.90;;;;;;5001378;28;20515;-71
2024/03/05 11:40:42;;;;;;;33.27;12.30;;;12.10;99.90;;;;;;4997618;28;21109;-71
2024/03/05 11:43:09;;;;;;;44.30;14.50;;;11.90;99.90;;;;;;5000368;28;20461;-70
2024/03/05 11:45:49;;;;;;;33.67;14.90;;;12.00;99.90;;;;;;5000159;28;21596;-71
2024/03/05 11:48:18;;;;;;;27.67;11.67;;;12.10;99.90;;;;;;5003624;28;20489;-71
2024/03/05 11:50:46;;;;;;;27.73;14.17;;;12.00;99.90;;;;;;4997648;23;20561;-68
2024/03/05 11:53:13;;;;;;;35.17;15.40;;;11.90;99.90;;;;;;4984407;28;20441;-68
2024/03/05 11:55:42;;;;;;;37.83;12.80;;;11.90;99.90;;;;;;4977367;28;20510;-68
2024/03/05 11:58:09;;;;;;;27.47;14.00;;;11.90;99.90;;;;;;4973591;28;20509;-68
2024/03/05 12:00:36;;;;;;;25.53;11.83;;;12.00;99.90;;;;;;4963074;28;20540;-70
2024/03/05 12:03:04;;;;;;;24.33;11.77;;;11.90;99.90;;;;;;4963002;28;20530;-68
2024/03/05 12:05:31;;;;;;;27.07;12.43;;;11.90;99.90;;;;;;4966287;28;20903;-69
2024/03/05 12:07:58;;;;;;;33.00;15.03;;;11.70;99.90;;;;;;4962798;28;20486;-70
2024/03/05 12:10:27;;;;;;;30.23;12.73;;;11.60;99.90;;;;;;4966045;28;20475;-69
2024/03/05 12:12:55;;;;;;;16.33;9.40;;;11.50;99.90;;;;;;4965066;28;20539;-69
2024/03/05 12:15:23;;;;;;;25.20;11.17;;;11.60;99.90;;;;;;4964602;28;20546;-68
2024/03/05 12:17:50;;;;;;;22.33;10.43;;;11.50;99.90;;;;;;4963422;28;20566;-69
2024/03/05 12:20:20;;;;;;;28.40;11.33;;;11.50;99.90;;;;;;4965930;28;21192;-69
2024/03/05 12:22:50;;;;;;;22.47;12.30;;;11.60;99.90;;;;;;4967238;28;20554;-69
2024/03/05 12:25:18;;;;;;;19.73;11.13;;;11.40;99.90;;;;;;4969715;28;20573;-69
2024/03/05 12:27:47;;;;;;;18.03;9.07;;;11.40;99.90;;;;;;4967640;28;20490;-69
2024/03/05 12:30:16;;;;;;;19.80;10.23;;;11.40;99.90;;;;;;4968624;28;20545;-69
2024/03/05 12:32:44;;;;;;;22.47;10.30;;;11.50;99.90;;;;;;4964763;28;20518;-70
2024/03/05 12:35:13;;;;;;;27.27;10.10;;;11.50;99.90;;;;;;4968763;28;20558;-70
2024/03/05 12:37:40;;;;;;;16.07;10.40;;;11.50;99.90;;;;;;4967741;28;20463;-69
2024/03/05 12:40:14;;;;;;;22.83;9.70;;;11.50;99.90;;;;;;4968569;28;20482;-68
2024/03/05 12:42:42;;;;;;;22.20;9.40;;;11.40;99.90;;;;;;4968147;28;20466;-69
2024/03/05 12:45:11;;;;;;;32.80;13.60;;;11.30;99.90;;;;;;4965188;28;20989;-68